Airfield :
LOGIN :

Register | Disclaimer

   EN    FR    IT 

 










Legend :    VFR   Marginal VFR   IFR   Intensive IFR   Very Intensive IFR
Visi :
Ceiling :
>= 8 km
>= 3000ft
5 to 8 km
1000 to 3000 ft
1500m to 5 km
500 to 1000 ft
800 to 1500m
200 to 500 ft
< 800m
< 200 ft
Symbols :   Thunderstorms  Fog  Heavy snow  Heavy precipitations  Wind > 20 kt
SIGMETs :     Misc.  Thunderstorms  Icing  Turbulence  Mountain Waves  Volcanic Ashes






- Airport Elevation : 16 ft
- IATA code : SDR


LEXJ - Santander Cantabria

CURRENT METAR :
  • 121500Z 32005KT 280V020 9999 SCT014 OVC019 SCT024TCU 23/20 Q1011

EXPIRED METARs :
  • 121430Z 33004KT 270V020 9999 SCT014 BKN020 SCT024TCU 23/21 Q1011
  • 121400Z 32003KT 260V030 9999 SCT012 BKN020 23/22 Q1011
  • 121330Z 33004KT 280V030 9000 4000SE -RA SCT015 BKN025 22/21 Q1011
  • 121315Z 36005KT 4500 -RA VCTS BKN019 FEW020CB 22/20 Q1011
  • 121307Z 31008KT 280V020 1000 R29/P2000 +SHRA TS BKN019CB 24/20 Q1012
  • 121230Z 34006KT 250V030 9999 BKN018 25/20 Q1011

TAF TAF LEXJ
Valid from the 12 at 15:00 until the 13 at 15:00 UTC


121400Z 1215/1315 32006KT 9999 SCT020 TX26/1314Z TN17/1305Z
BECMG 1215/1218 26010KT
TEMPO 1215/1221 3000 SHRA FEW030CB SCT035TCU
TEMPO 1215/1218 1400 +SHRA TS SCT030CB
PROB40
TEMPO 1215/1221 26015G25KT 3000 TS SHRA BKN010 SCT030CB SCT035TCU
TEMPO 1310/1315 32010KT



MET'MAP, your aeronautical weather chart ! - Copyright ORBIFLY December 2007 - Disclaimer

ORBIFLY MET'MAP TEAM :

Programming & Development : Alexandra Zaïnal
Concept & original design : Baudouin d'Aumeries
Assistance for programming : Marc-Olivier Méhu
Technical & hardware support : Manuel Goepfert

Contact : metmap@orbifly.com




SOURCES & CREDITS :

   NOAA